sensor_id;sensor_type;location;lat;lon;timestamp;pressure;altitude;pressure_sealevel;temperature;humidity
70445;BME280;57902;49.638;11.070;2024-02-14T00:02:03;98715.41;;;1.50;100.00
70445;BME280;57902;49.638;11.070;2024-02-14T00:04:31;98724.69;;;1.48;100.00
70445;BME280;57902;49.638;11.070;2024-02-14T00:06:58;98716.19;;;1.46;100.00
70445;BME280;57902;49.638;11.070;2024-02-14T00:09:24;98724.69;;;1.48;100.00
70445;BME280;57902;49.638;11.070;2024-02-14T00:11:51;98723.22;;;1.66;100.00
70445;BME280;57902;49.638;11.070;2024-02-14T00:14:18;98715.00;;;1.82;100.00
70445;BME280;57902;49.638;11.070;2024-02-14T00:16:47;98718.34;;;1.81;100.00
70445;BME280;57902;49.638;11.070;2024-02-14T00:19:14;98716.63;;;1.80;100.00
70445;BME280;57902;49.638;11.070;2024-02-14T00:21:41;98722.66;;;1.87;100.00
70445;BME280;57902;49.638;11.070;2024-02-14T00:24:07;98719.16;;;1.79;100.00
70445;BME280;57902;49.638;11.070;2024-02-14T00:26:34;98715.72;;;1.73;100.00
70445;BME280;57902;49.638;11.070;2024-02-14T00:29:01;98714.09;;;1.80;100.00
70445;BME280;57902;49.638;11.070;2024-02-14T00:31:28;98715.88;;;1.86;100.00
70445;BME280;57902;49.638;11.070;2024-02-14T00:33:55;98718.59;;;2.00;100.00
70445;BME280;57902;49.638;11.070;2024-02-14T00:36:22;98720.28;;;2.01;100.00
70445;BME280;57902;49.638;11.070;2024-02-14T00:38:48;98727.13;;;2.08;100.00
70445;BME280;57902;49.638;11.070;2024-02-14T00:41:15;98724.59;;;2.08;100.00
70445;BME280;57902;49.638;11.070;2024-02-14T00:43:41;98716.91;;;2.02;100.00
70445;BME280;57902;49.638;11.070;2024-02-14T00:46:08;98718.59;;;2.01;100.00
70445;BME280;57902;49.638;11.070;2024-02-14T00:48:34;98718.53;;;1.97;100.00
70445;BME280;57902;49.638;11.070;2024-02-14T00:51:01;98715.19;;;2.02;100.00
70445;BME280;57902;49.638;11.070;2024-02-14T00:53:27;98715.31;;;2.10;100.00
70445;BME280;57902;49.638;11.070;2024-02-14T00:55:54;98725.50;;;2.12;100.00
70445;BME280;57902;49.638;11.070;2024-02-14T00:58:20;98719.59;;;2.16;100.00
70445;BME280;57902;49.638;11.070;2024-02-14T01:00:47;98723.00;;;2.16;100.00
70445;BME280;57902;49.638;11.070;2024-02-14T01:03:13;98723.88;;;2.18;100.00
70445;BME280;57902;49.638;11.070;2024-02-14T01:05:41;98727.31;;;2.20;100.00
70445;BME280;57902;49.638;11.070;2024-02-14T01:08:09;98718.88;;;2.27;100.00
70445;BME280;57902;49.638;11.070;2024-02-14T01:10:35;98714.66;;;2.30;100.00
70445;BME280;57902;49.638;11.070;2024-02-14T01:13:02;98716.31;;;2.27;100.00
70445;BME280;57902;49.638;11.070;2024-02-14T01:15:28;98713.81;;;2.29;100.00
70445;BME280;57902;49.638;11.070;2024-02-14T01:17:54;98710.41;;;2.27;100.00
70445;BME280;57902;49.638;11.070;2024-02-14T01:20:21;98716.22;;;2.15;100.00
70445;BME280;57902;49.638;11.070;2024-02-14T01:22:47;98718.66;;;2.06;100.00
70445;BME280;57902;49.638;11.070;2024-02-14T01:25:14;98721.22;;;2.07;100.00
70445;BME280;57902;49.638;11.070;2024-02-14T01:27:41;98724.56;;;2.05;100.00
70445;BME280;57902;49.638;11.070;2024-02-14T01:30:10;98720.28;;;2.02;100.00
70445;BME280;57902;49.638;11.070;2024-02-14T01:32:37;98720.31;;;2.04;100.00
70445;BME280;57902;49.638;11.070;2024-02-14T01:35:04;98713.66;;;2.14;100.00
70445;BME280;57902;49.638;11.070;2024-02-14T01:37:30;98718.75;;;2.17;100.00
70445;BME280;57902;49.638;11.070;2024-02-14T01:39:57;98723.84;;;2.15;100.00
70445;BME280;57902;49.638;11.070;2024-02-14T01:42:24;98716.16;;;2.10;100.00
70445;BME280;57902;49.638;11.070;2024-02-14T01:44:50;98703.47;;;2.14;100.00
70445;BME280;57902;49.638;11.070;2024-02-14T01:47:17;98707.75;;;2.18;100.00
70445;BME280;57902;49.638;11.070;2024-02-14T01:49:45;98706.00;;;2.12;100.00
70445;BME280;57902;49.638;11.070;2024-02-14T01:52:11;98704.53;;;2.34;100.00
70445;BME280;57902;49.638;11.070;2024-02-14T01:54:39;98708.03;;;2.44;100.00
70445;BME280;57902;49.638;11.070;2024-02-14T01:57:06;98708.88;;;2.43;100.00
70445;BME280;57902;49.638;11.070;2024-02-14T01:59:33;98703.69;;;2.34;100.00
70445;BME280;57902;49.638;11.070;2024-02-14T02:02:01;98704.56;;;2.36;100.00
70445;BME280;57902;49.638;11.070;2024-02-14T02:04:28;98696.06;;;2.34;100.00
70445;BME280;57902;49.638;11.070;2024-02-14T02:06:55;98695.97;;;2.26;100.00
70445;BME280;57902;49.638;11.070;2024-02-14T02:09:22;98690.78;;;2.17;100.00
70445;BME280;57902;49.638;11.070;2024-02-14T02:11:50;98688.25;;;2.17;100.00
70445;BME280;57902;49.638;11.070;2024-02-14T02:14:17;98685.72;;;2.20;100.00
70445;BME280;57902;49.638;11.070;2024-02-14T02:16:44;98690.81;;;2.20;100.00
70445;BME280;57902;49.638;11.070;2024-02-14T02:19:10;98676.34;;;2.16;100.00
70445;BME280;57902;49.638;11.070;2024-02-14T02:21:37;98673.91;;;2.23;100.00
70445;BME280;57902;49.638;11.070;2024-02-14T02:24:04;98677.25;;;2.19;100.00
70445;BME280;57902;49.638;11.070;2024-02-14T02:26:31;98674.66;;;2.13;100.00
70445;BME280;57902;49.638;11.070;2024-02-14T02:28:58;98676.34;;;2.14;100.00
70445;BME280;57902;49.638;11.070;2024-02-14T02:31:26;98669.56;;;2.12;100.00
70445;BME280;57902;49.638;11.070;2024-02-14T02:33:52;98669.50;;;2.08;100.00
70445;BME280;57902;49.638;11.070;2024-02-14T02:36:19;98666.13;;;2.09;100.00
70445;BME280;57902;49.638;11.070;2024-02-14T02:38:46;98666.09;;;2.08;100.00
70445;BME280;57902;49.638;11.070;2024-02-14T02:41:13;98670.47;;;2.20;100.00
70445;BME280;57902;49.638;11.070;2024-02-14T02:43:39;98667.13;;;2.24;100.00
70445;BME280;57902;49.638;11.070;2024-02-14T02:46:09;98669.69;;;2.28;100.00
70445;BME280;57902;49.638;11.070;2024-02-14T02:48:35;98669.91;;;2.49;100.00
70445;BME280;57902;49.638;11.070;2024-02-14T02:51:02;98668.97;;;2.42;100.00
70445;BME280;57902;49.638;11.070;2024-02-14T02:53:29;98674.06;;;2.40;100.00
70445;BME280;57902;49.638;11.070;2024-02-14T02:55:56;98668.13;;;2.38;100.00
70445;BME280;57902;49.638;11.070;2024-02-14T02:58:23;98669.75;;;2.33;100.00
70445;BME280;57902;49.638;11.070;2024-02-14T03:00:50;98662.97;;;2.31;100.00
70445;BME280;57902;49.638;11.070;2024-02-14T03:03:17;98668.00;;;2.27;100.00
70445;BME280;57902;49.638;11.070;2024-02-14T03:05:43;98664.59;;;2.25;100.00
70445;BME280;57902;49.638;11.070;2024-02-14T03:08:11;98662.91;;;2.27;100.00
70445;BME280;57902;49.638;11.070;2024-02-14T03:10:42;98662.03;;;2.25;100.00
70445;BME280;57902;49.638;11.070;2024-02-14T03:13:08;98662.94;;;2.29;100.00
70445;BME280;57902;49.638;11.070;2024-02-14T03:15:38;98662.13;;;2.36;100.00
70445;BME280;57902;49.638;11.070;2024-02-14T03:18:04;98659.69;;;2.44;100.00
70445;BME280;57902;49.638;11.070;2024-02-14T03:20:36;98665.66;;;2.49;100.00
70445;BME280;57902;49.638;11.070;2024-02-14T03:23:03;98664.00;;;2.51;100.00
70445;BME280;57902;49.638;11.070;2024-02-14T03:25:32;98656.31;;;2.48;100.00
70445;BME280;57902;49.638;11.070;2024-02-14T03:27:59;98669.97;;;2.56;100.00
70445;BME280;57902;49.638;11.070;2024-02-14T03:30:25;98667.41;;;2.53;100.00
70445;BME280;57902;49.638;11.070;2024-02-14T03:32:52;98661.47;;;2.53;100.00
70445;BME280;57902;49.638;11.070;2024-02-14T03:35:19;98664.88;;;2.58;100.00
70445;BME280;57902;49.638;11.070;2024-02-14T03:37:47;98663.94;;;2.48;100.00
70445;BME280;57902;49.638;11.070;2024-02-14T03:40:15;98668.22;;;2.52;100.00
70445;BME280;57902;49.638;11.070;2024-02-14T03:42:41;98664.00;;;2.53;100.00
70445;BME280;57902;49.638;11.070;2024-02-14T03:45:08;98659.75;;;2.50;100.00
70445;BME280;57902;49.638;11.070;2024-02-14T03:47:35;98666.47;;;2.45;100.00
70445;BME280;57902;49.638;11.070;2024-02-14T03:50:07;98662.28;;;2.50;100.00
70445;BME280;57902;49.638;11.070;2024-02-14T03:52:34;98674.97;;;2.44;100.00
70445;BME280;57902;49.638;11.070;2024-02-14T03:55:00;98663.00;;;2.37;100.00
70445;BME280;57902;49.638;11.070;2024-02-14T03:57:27;98674.00;;;2.33;100.00
70445;BME280;57902;49.638;11.070;2024-02-14T03:59:55;98679.06;;;2.31;100.00
70445;BME280;57902;49.638;11.070;2024-02-14T04:02:22;98681.56;;;2.26;100.00
70445;BME280;57902;49.638;11.070;2024-02-14T04:04:54;98679.91;;;2.32;100.00
70445;BME280;57902;49.638;11.070;2024-02-14T04:07:20;98678.31;;;2.41;100.00
70445;BME280;57902;49.638;11.070;2024-02-14T04:09:48;98679.06;;;2.31;100.00
70445;BME280;57902;49.638;11.070;2024-02-14T04:12:15;98677.38;;;2.35;100.00
70445;BME280;57902;49.638;11.070;2024-02-14T04:14:41;98668.88;;;2.31;100.00
70445;BME280;57902;49.638;11.070;2024-02-14T04:17:08;98666.38;;;2.36;100.00
70445;BME280;57902;49.638;11.070;2024-02-14T04:19:34;98666.34;;;2.33;100.00
70445;BME280;57902;49.638;11.070;2024-02-14T04:22:01;98662.91;;;2.27;100.00
70445;BME280;57902;49.638;11.070;2024-02-14T04:24:28;98667.16;;;2.28;100.00
70445;BME280;57902;49.638;11.070;2024-02-14T04:26:54;98669.75;;;2.35;100.00
70445;BME280;57902;49.638;11.070;2024-02-14T04:29:23;98657.91;;;2.34;100.00
70445;BME280;57902;49.638;11.070;2024-02-14T04:31:50;98663.88;;;2.42;100.00
70445;BME280;57902;49.638;11.070;2024-02-14T04:34:17;98664.75;;;2.42;100.00
70445;BME280;57902;49.638;11.070;2024-02-14T04:36:45;98667.28;;;2.41;100.00
70445;BME280;57902;49.638;11.070;2024-02-14T04:39:11;98658.91;;;2.50;100.00
70445;BME280;57902;49.638;11.070;2024-02-14T04:41:38;98671.66;;;2.56;100.00
70445;BME280;57902;49.638;11.070;2024-02-14T04:44:22;98672.66;;;2.70;100.00
70445;BME280;57902;49.638;11.070;2024-02-14T04:46:49;98683.69;;;2.75;100.00
70445;BME280;57902;49.638;11.070;2024-02-14T04:49:15;98689.69;;;2.80;100.00
70445;BME280;57902;49.638;11.070;2024-02-14T04:51:42;98690.63;;;2.96;100.00
70445;BME280;57902;49.638;11.070;2024-02-14T04:54:08;98700.00;;;2.99;100.00
70445;BME280;57902;49.638;11.070;2024-02-14T04:56:36;98694.94;;;3.05;100.00
70445;BME280;57902;49.638;11.070;2024-02-14T04:59:02;98699.19;;;3.03;100.00
70445;BME280;57902;49.638;11.070;2024-02-14T05:01:30;98694.13;;;3.05;100.00
70445;BME280;57902;49.638;11.070;2024-02-14T05:03:57;98706.81;;;3.02;100.00
70445;BME280;57902;49.638;11.070;2024-02-14T05:06:24;98710.19;;;2.99;100.00
70445;BME280;57902;49.638;11.070;2024-02-14T05:08:51;98695.81;;;3.06;100.00
70445;BME280;57902;49.638;11.070;2024-02-14T05:11:18;98698.34;;;3.03;100.00
70445;BME280;57902;49.638;11.070;2024-02-14T05:13:44;98703.47;;;3.07;100.00
70445;BME280;57902;49.638;11.070;2024-02-14T05:16:12;98700.94;;;3.09;100.00
70445;BME280;57902;49.638;11.070;2024-02-14T05:18:39;98696.59;;;2.94;100.00
70445;BME280;57902;49.638;11.070;2024-02-14T05:21:06;98698.38;;;3.07;100.00
70445;BME280;57902;49.638;11.070;2024-02-14T05:23:34;98700.91;;;3.03;100.00
70445;BME280;57902;49.638;11.070;2024-02-14T05:26:02;98694.09;;;3.02;100.00
70445;BME280;57902;49.638;11.070;2024-02-14T05:28:30;98700.19;;;3.22;100.00
70445;BME280;57902;49.638;11.070;2024-02-14T05:30:57;98685.69;;;3.12;100.00
70445;BME280;57902;49.638;11.070;2024-02-14T05:33:23;98686.50;;;3.12;100.00
70445;BME280;57902;49.638;11.070;2024-02-14T05:35:51;98696.00;;;3.29;100.00
70445;BME280;57902;49.638;11.070;2024-02-14T05:38:18;98699.38;;;3.26;100.00
70445;BME280;57902;49.638;11.070;2024-02-14T05:40:50;98690.91;;;3.30;100.00
70445;BME280;57902;49.638;11.070;2024-02-14T05:43:17;98694.25;;;3.22;100.00
70445;BME280;57902;49.638;11.070;2024-02-14T05:45:44;98701.03;;;3.24;100.00
70445;BME280;57902;49.638;11.070;2024-02-14T05:48:11;98694.31;;;3.36;100.00
70445;BME280;57902;49.638;11.070;2024-02-14T05:50:38;98690.09;;;3.39;100.00
70445;BME280;57902;49.638;11.070;2024-02-14T05:53:04;98690.97;;;3.46;100.00
70445;BME280;57902;49.638;11.070;2024-02-14T05:55:31;98696.88;;;3.39;100.00
70445;BME280;57902;49.638;11.070;2024-02-14T05:57:58;98681.69;;;3.59;100.00
70445;BME280;57902;49.638;11.070;2024-02-14T06:00:25;98696.91;;;3.46;100.00
70445;BME280;57902;49.638;11.070;2024-02-14T06:02:55;98690.97;;;3.47;100.00
70445;BME280;57902;49.638;11.070;2024-02-14T06:05:22;98691.00;;;3.54;100.00
70445;BME280;57902;49.638;11.070;2024-02-14T06:07:49;98699.44;;;3.45;100.00
70445;BME280;57902;49.638;11.070;2024-02-14T06:10:17;98696.97;;;3.53;100.00
70445;BME280;57902;49.638;11.070;2024-02-14T06:12:45;98702.91;;;3.56;100.00
70445;BME280;57902;49.638;11.070;2024-02-14T06:15:14;98701.22;;;3.57;100.00
70445;BME280;57902;49.638;11.070;2024-02-14T06:17:41;98696.19;;;3.64;100.00
70445;BME280;57902;49.638;11.070;2024-02-14T06:20:08;98697.00;;;3.63;100.00
70445;BME280;57902;49.638;11.070;2024-02-14T06:22:35;98693.63;;;3.66;100.00
70445;BME280;57902;49.638;11.070;2024-02-14T06:25:13;98690.22;;;3.65;100.00
70445;BME280;57902;49.638;11.070;2024-02-14T06:27:39;98694.44;;;3.57;100.00
70445;BME280;57902;49.638;11.070;2024-02-14T06:30:07;98692.81;;;3.72;100.00
70445;BME280;57902;49.638;11.070;2024-02-14T06:32:34;98696.22;;;3.77;100.00
70445;BME280;57902;49.638;11.070;2024-02-14T06:35:02;98710.59;;;3.61;100.00
70445;BME280;57902;49.638;11.070;2024-02-14T06:37:29;98706.41;;;3.74;100.00
70445;BME280;57902;49.638;11.070;2024-02-14T06:40:01;98714.09;;;3.81;100.00
70445;BME280;57902;49.638;11.070;2024-02-14T06:42:28;98714.09;;;3.81;100.00
70445;BME280;57902;49.638;11.070;2024-02-14T06:44:54;98716.59;;;3.71;100.00
70445;BME280;57902;49.638;11.070;2024-02-14T06:47:21;98719.16;;;3.72;100.00
70445;BME280;57902;49.638;11.070;2024-02-14T06:49:48;98716.59;;;3.66;100.00
70445;BME280;57902;49.638;11.070;2024-02-14T06:52:15;98716.63;;;3.75;100.00
70445;BME280;57902;49.638;11.070;2024-02-14T06:54:41;98715.78;;;3.76;100.00
70445;BME280;57902;49.638;11.070;2024-02-14T06:57:08;98718.31;;;3.75;100.00
70445;BME280;57902;49.638;11.070;2024-02-14T06:59:34;98720.00;;;3.73;100.00
70445;BME280;57902;49.638;11.070;2024-02-14T07:02:05;98718.34;;;3.81;100.00
70445;BME280;57902;49.638;11.070;2024-02-14T07:04:39;98718.34;;;3.84;100.00
70445;BME280;57902;49.638;11.070;2024-02-14T07:07:06;98716.63;;;3.80;100.00
70445;BME280;57902;49.638;11.070;2024-02-14T07:09:33;98710.66;;;3.72;100.00
70445;BME280;57902;49.638;11.070;2024-02-14T07:12:02;98712.25;;;3.53;100.00
70445;BME280;57902;49.638;11.070;2024-02-14T07:14:28;98703.84;;;3.71;100.00
70445;BME280;57902;49.638;11.070;2024-02-14T07:16:55;98710.66;;;3.70;100.00
70445;BME280;57902;49.638;11.070;2024-02-14T07:19:22;98711.50;;;3.71;100.00
70445;BME280;57902;49.638;11.070;2024-02-14T07:21:48;98703.03;;;3.75;100.00
70445;BME280;57902;49.638;11.070;2024-02-14T07:24:15;98715.75;;;3.72;100.00
70445;BME280;57902;49.638;11.070;2024-02-14T07:26:42;98714.03;;;3.69;100.00
70445;BME280;57902;49.638;11.070;2024-02-14T07:29:11;98709.06;;;3.97;100.00
70445;BME280;57902;49.638;11.070;2024-02-14T07:31:37;98709.06;;;3.94;100.00
70445;BME280;57902;49.638;11.070;2024-02-14T07:34:04;98708.16;;;3.87;100.00
70445;BME280;57902;49.638;11.070;2024-02-14T07:36:35;98713.25;;;3.81;100.00
70445;BME280;57902;49.638;11.070;2024-02-14T07:39:02;98713.25;;;3.81;100.00
70445;BME280;57902;49.638;11.070;2024-02-14T07:41:28;98696.25;;;3.88;100.00
70445;BME280;57902;49.638;11.070;2024-02-14T07:43:55;98707.31;;;3.82;100.00
70445;BME280;57902;49.638;11.070;2024-02-14T07:46:23;98708.19;;;3.93;100.00
70445;BME280;57902;49.638;11.070;2024-02-14T07:48:52;98712.44;;;3.93;100.00
70445;BME280;57902;49.638;11.070;2024-02-14T07:51:20;98722.66;;;3.96;100.00
70445;BME280;57902;49.638;11.070;2024-02-14T07:53:46;98713.38;;;4.15;100.00
70445;BME280;57902;49.638;11.070;2024-02-14T07:56:13;98710.81;;;4.15;100.00
70445;BME280;57902;49.638;11.070;2024-02-14T07:58:39;98712.53;;;4.16;100.00
70445;BME280;57902;49.638;11.070;2024-02-14T08:01:06;98716.88;;;4.51;100.00
70445;BME280;57902;49.638;11.070;2024-02-14T08:03:33;98713.38;;;4.24;100.00
70445;BME280;57902;49.638;11.070;2024-02-14T08:05:59;98715.13;;;4.33;100.00
70445;BME280;57902;49.638;11.070;2024-02-14T08:08:27;98710.88;;;4.41;100.00
70445;BME280;57902;49.638;11.070;2024-02-14T08:10:54;98706.63;;;4.38;100.00
70445;BME280;57902;49.638;11.070;2024-02-14T08:13:21;98722.88;;;4.68;100.00
70445;BME280;57902;49.638;11.070;2024-02-14T08:15:48;98715.16;;;4.64;100.00
70445;BME280;57902;49.638;11.070;2024-02-14T08:18:16;98711.78;;;4.66;100.00
70445;BME280;57902;49.638;11.070;2024-02-14T08:20:43;98716.88;;;4.71;100.00
70445;BME280;57902;49.638;11.070;2024-02-14T08:23:09;98727.09;;;4.76;100.00
70445;BME280;57902;49.638;11.070;2024-02-14T08:25:36;98733.06;;;4.78;100.00
70445;BME280;57902;49.638;11.070;2024-02-14T08:28:03;98740.75;;;5.02;100.00
70445;BME280;57902;49.638;11.070;2024-02-14T08:30:29;98740.75;;;4.99;100.00
70445;BME280;57902;49.638;11.070;2024-02-14T08:32:56;98744.16;;;4.98;100.00
70445;BME280;57902;49.638;11.070;2024-02-14T08:35:23;98746.72;;;5.01;100.00
70445;BME280;57902;49.638;11.070;2024-02-14T08:37:49;98756.09;;;5.05;100.00
70445;BME280;57902;49.638;11.070;2024-02-14T08:40:17;98746.72;;;5.06;100.00
70445;BME280;57902;49.638;11.070;2024-02-14T08:42:44;98747.56;;;4.96;100.00
70445;BME280;57902;49.638;11.070;2024-02-14T08:45:10;98743.28;;;4.96;100.00
70445;BME280;57902;49.638;11.070;2024-02-14T08:47:37;98746.72;;;5.04;100.00
70445;BME280;57902;49.638;11.070;2024-02-14T08:50:05;98760.31;;;5.03;100.00
70445;BME280;57902;49.638;11.070;2024-02-14T08:52:31;98749.28;;;4.89;100.00
70445;BME280;57902;49.638;11.070;2024-02-14T08:54:59;98746.72;;;5.04;100.00
70445;BME280;57902;49.638;11.070;2024-02-14T08:57:25;98747.56;;;5.00;100.00
70445;BME280;57902;49.638;11.070;2024-02-14T08:59:54;98752.66;;;5.31;100.00
70445;BME280;57902;49.638;11.070;2024-02-14T09:02:22;98750.09;;;5.34;100.00
70445;BME280;57902;49.638;11.070;2024-02-14T09:04:49;98748.41;;;5.18;100.00
70445;BME280;57902;49.638;11.070;2024-02-14T09:07:17;98754.38;;;5.26;100.00
70445;BME280;57902;49.638;11.070;2024-02-14T09:09:44;98756.09;;;5.29;100.00
70445;BME280;57902;49.638;11.070;2024-02-14T09:12:35;98747.56;;;5.16;100.00
70445;BME280;57902;49.638;11.070;2024-02-14T09:15:22;98745.84;;;5.39;100.00
70445;BME280;57902;49.638;11.070;2024-02-14T09:17:53;98742.44;;;5.28;100.00
70445;BME280;57902;49.638;11.070;2024-02-14T09:20:23;98744.16;;;5.24;100.00
70445;BME280;57902;49.638;11.070;2024-02-14T09:29:47;98730.41;;;5.73;100.00
70445;BME280;57902;49.638;11.070;2024-02-14T09:32:14;98728.72;;;5.66;100.00
70445;BME280;57902;49.638;11.070;2024-02-14T09:34:40;98733.88;;;5.57;100.00
70445;BME280;57902;49.638;11.070;2024-02-14T09:37:07;98739.84;;;5.51;100.00
70445;BME280;57902;49.638;11.070;2024-02-14T09:43:38;98738.91;;;5.88;100.00
70445;BME280;57902;49.638;11.070;2024-02-14T09:46:07;98727.84;;;5.79;100.00
70445;BME280;57902;49.638;11.070;2024-02-14T09:48:35;98755.16;;;5.74;100.00
70445;BME280;57902;49.638;11.070;2024-02-14T09:51:05;98743.16;;;5.90;100.00
70445;BME280;57902;49.638;11.070;2024-02-14T09:53:33;98730.38;;;5.89;100.00
70445;BME280;57902;49.638;11.070;2024-02-14T09:56:14;98743.16;;;5.95;100.00
70445;BME280;57902;49.638;11.070;2024-02-14T09:58:58;98750.84;;;5.92;100.00
70445;BME280;57902;49.638;11.070;2024-02-14T10:01:29;98752.50;;;6.11;100.00
70445;BME280;57902;49.638;11.070;2024-02-14T10:04:14;98762.41;;;6.73;100.00
70445;BME280;57902;49.638;11.070;2024-02-14T10:06:45;98760.94;;;6.32;100.00
70445;BME280;57902;49.638;11.070;2024-02-14T10:09:25;98755.00;;;6.30;100.00
70445;BME280;57902;49.638;11.070;2024-02-14T10:12:24;98760.09;;;6.33;100.00
70445;BME280;57902;49.638;11.070;2024-02-14T10:14:55;98752.34;;;6.42;100.00
70445;BME280;57902;49.638;11.070;2024-02-14T10:17:22;98758.28;;;6.52;100.00
70445;BME280;57902;49.638;11.070;2024-02-14T10:20:10;98760.75;;;6.68;100.00
70445;BME280;57902;49.638;11.070;2024-02-14T10:22:51;98752.97;;;6.83;100.00
70445;BME280;57902;49.638;11.070;2024-02-14T10:25:18;98760.59;;;6.91;100.00
70445;BME280;57902;49.638;11.070;2024-02-14T10:27:45;98761.41;;;6.94;100.00
70445;BME280;57902;49.638;11.070;2024-02-14T10:30:14;98757.06;;;7.06;100.00
70445;BME280;57902;49.638;11.070;2024-02-14T10:32:41;98764.66;;;7.21;100.00
70445;BME280;57902;49.638;11.070;2024-02-14T10:35:14;98761.22;;;7.19;100.00
70445;BME280;57902;49.638;11.070;2024-02-14T10:37:41;98754.41;;;7.18;100.00
70445;BME280;57902;49.638;11.070;2024-02-14T10:40:08;98755.25;;;7.18;100.00
70445;BME280;57902;49.638;11.070;2024-02-14T10:42:54;98755.22;;;7.22;100.00
70445;BME280;57902;49.638;11.070;2024-02-14T10:45:21;98759.28;;;7.47;100.00
70445;BME280;57902;49.638;11.070;2024-02-14T10:47:51;98758.44;;;7.45;100.00
70445;BME280;57902;49.638;11.070;2024-02-14T10:50:27;98759.38;;;7.36;100.00
70445;BME280;57902;49.638;11.070;2024-02-14T10:53:06;98755.13;;;7.31;100.00
70445;BME280;57902;49.638;11.070;2024-02-14T10:55:53;98756.88;;;7.29;100.00
70445;BME280;57902;49.638;11.070;2024-02-14T10:58:23;98755.25;;;7.18;100.00
70445;BME280;57902;49.638;11.070;2024-02-14T11:00:54;98755.25;;;7.18;100.00
70445;BME280;57902;49.638;11.070;2024-02-14T11:03:20;98753.66;;;7.05;100.00
70445;BME280;57902;49.638;11.070;2024-02-14T11:05:48;98748.44;;;7.14;100.00
70445;BME280;57902;49.638;11.070;2024-02-14T11:08:19;98748.44;;;7.14;100.00
70445;BME280;57902;49.638;11.070;2024-02-14T11:10:54;98754.44;;;7.12;100.00
70445;BME280;57902;49.638;11.070;2024-02-14T11:13:26;98746.72;;;7.15;100.00
70445;BME280;57902;49.638;11.070;2024-02-14T11:16:00;98752.75;;;7.14;100.00
70445;BME280;57902;49.638;11.070;2024-02-14T11:18:28;98755.22;;;7.23;100.00
70445;BME280;57902;49.638;11.070;2024-02-14T11:20:57;98757.72;;;7.29;100.00
70445;BME280;57902;49.638;11.070;2024-02-14T11:23:30;98756.78;;;7.40;100.00
70445;BME280;57902;49.638;11.070;2024-02-14T11:26:03;98750.75;;;7.44;100.00
70445;BME280;57902;49.638;11.070;2024-02-14T11:28:37;98743.91;;;7.43;100.00
70445;BME280;57902;49.638;11.070;2024-02-14T11:31:07;98748.13;;;7.51;100.00
70445;BME280;57902;49.638;11.070;2024-02-14T11:33:33;98748.97;;;7.52;100.00
70445;BME280;57902;49.638;11.070;2024-02-14T11:36:07;98754.84;;;7.62;100.00
70445;BME280;57902;49.638;11.070;2024-02-14T11:38:40;98741.19;;;7.61;100.00
70445;BME280;57902;49.638;11.070;2024-02-14T11:41:06;98748.81;;;7.67;100.00
70445;BME280;57902;49.638;11.070;2024-02-14T11:43:33;98737.78;;;7.61;100.00
70445;BME280;57902;49.638;11.070;2024-02-14T11:46:00;98740.06;;;7.84;100.00
70445;BME280;57902;49.638;11.070;2024-02-14T11:48:28;98733.22;;;7.86;100.00
70445;BME280;57902;49.638;11.070;2024-02-14T11:50:55;98734.84;;;7.95;100.00
70445;BME280;57902;49.638;11.070;2024-02-14T11:53:22;98734.56;;;8.18;100.00
70445;BME280;57902;49.638;11.070;2024-02-14T11:55:49;98736.31;;;8.14;100.00
70445;BME280;57902;49.638;11.070;2024-02-14T11:58:17;98733.59;;;8.23;100.00
70445;BME280;57902;49.638;11.070;2024-02-14T12:00:45;98737.66;;;8.43;100.00
70445;BME280;57902;49.638;11.070;2024-02-14T12:03:17;98736.91;;;8.33;100.00
70445;BME280;57902;49.638;11.070;2024-02-14T12:05:46;98738.56;;;8.39;100.00
70445;BME280;57902;49.638;11.070;2024-02-14T12:08:14;98743.63;;;8.47;100.00
70445;BME280;57902;49.638;11.070;2024-02-14T12:10:45;98741.78;;;8.56;100.00
70445;BME280;57902;49.638;11.070;2024-02-14T12:13:24;98741.06;;;8.44;100.00
70445;BME280;57902;49.638;11.070;2024-02-14T12:15:51;98743.34;;;8.67;100.00
70445;BME280;57902;49.638;11.070;2024-02-14T12:18:19;98732.19;;;8.69;100.00
70445;BME280;57902;49.638;11.070;2024-02-14T12:20:47;98732.22;;;8.65;100.00
70445;BME280;57902;49.638;11.070;2024-02-14T12:23:20;98730.28;;;8.81;100.00
70445;BME280;57902;49.638;11.070;2024-02-14T12:25:48;98731.00;;;8.89;100.00
70445;BME280;57902;49.638;11.070;2024-02-14T12:28:16;98737.75;;;8.98;100.00
70445;BME280;57902;49.638;11.070;2024-02-14T12:30:48;98735.28;;;8.91;100.00
70445;BME280;57902;49.638;11.070;2024-02-14T12:33:17;98736.91;;;8.94;100.00
70445;BME280;57902;49.638;11.070;2024-02-14T12:35:45;98735.94;;;9.03;100.00
70445;BME280;57902;49.638;11.070;2024-02-14T12:38:13;98731.44;;;9.16;100.00
70445;BME280;57902;49.638;11.070;2024-02-14T12:40:40;98736.41;;;9.28;100.00
70445;BME280;57902;49.638;11.070;2024-02-14T12:43:15;98749.34;;;9.22;100.00
70445;BME280;57902;49.638;11.070;2024-02-14T12:45:42;98750.09;;;9.28;100.00
70445;BME280;57902;49.638;11.070;2024-02-14T12:48:12;98751.84;;;9.26;100.00
70445;BME280;57902;49.638;11.070;2024-02-14T12:50:40;98751.44;;;9.50;100.00
70445;BME280;57902;49.638;11.070;2024-02-14T12:53:14;98760.09;;;9.47;100.00
70445;BME280;57902;49.638;11.070;2024-02-14T12:55:40;98756.50;;;9.54;100.00
70445;BME280;57902;49.638;11.070;2024-02-14T12:58:07;98763.56;;;9.44;100.00
70445;BME280;57902;49.638;11.070;2024-02-14T13:00:33;98761.91;;;9.40;100.00
70445;BME280;57902;49.638;11.070;2024-02-14T13:03:01;98762.13;;;9.28;100.00
70445;BME280;57902;49.638;11.070;2024-02-14T13:05:28;98761.13;;;9.34;100.00
70445;BME280;57902;49.638;11.070;2024-02-14T13:07:54;98754.19;;;9.40;100.00